createdAt,value
2023-02-22T00:00:48.722Z,31.88
2023-02-22T00:03:34.753Z,35.80
2023-02-22T00:06:04.948Z,37.95
2023-02-22T00:08:35.464Z,29.00
2023-02-22T00:11:08.494Z,27.08
2023-02-22T00:13:36.702Z,26.15
2023-02-22T00:16:04.073Z,27.73
2023-02-22T00:18:30.911Z,39.05
2023-02-22T00:20:59.963Z,27.48
2023-02-22T00:23:29.853Z,36.53
2023-02-22T00:25:58.276Z,34.78
2023-02-22T00:28:25.564Z,43.50
2023-02-22T00:30:54.619Z,28.73
2023-02-22T00:33:21.573Z,35.25
2023-02-22T00:35:48.375Z,42.22
2023-02-22T00:38:17.384Z,31.73
2023-02-22T00:40:45.309Z,37.88
2023-02-22T00:43:12.454Z,36.03
2023-02-22T00:45:40.977Z,27.05
2023-02-22T00:48:08.965Z,26.95
2023-02-22T00:50:36.513Z,27.73
2023-02-22T00:53:04.877Z,23.70
2023-02-22T00:55:35.216Z,34.17
2023-02-22T00:58:02.952Z,35.67
2023-02-22T01:00:32.683Z,29.88
2023-02-22T01:03:00.045Z,25.08
2023-02-22T01:05:29.134Z,32.55
2023-02-22T01:07:57.656Z,23.70
2023-02-22T01:10:27.279Z,32.00
2023-02-22T01:12:55.081Z,24.83
2023-02-22T01:15:24.397Z,28.60
2023-02-22T01:17:53.431Z,23.75
2023-02-22T01:20:29.121Z,38.45
2023-02-22T01:22:58.741Z,46.75
2023-02-22T01:25:28.889Z,27.02
2023-02-22T01:27:56.561Z,26.52
2023-02-22T01:30:26.594Z,23.35
2023-02-22T01:32:53.879Z,31.77
2023-02-22T01:35:24.096Z,34.92
2023-02-22T01:37:51.058Z,31.20
2023-02-22T01:40:25.300Z,32.65
2023-02-22T01:42:53.677Z,26.15
2023-02-22T01:45:43.010Z,26.27
2023-02-22T01:48:33.522Z,24.45
2023-02-22T01:51:12.585Z,33.20
2023-02-22T01:53:56.905Z,27.95
2023-02-22T01:56:26.727Z,22.17
2023-02-22T01:59:06.649Z,32.97
2023-02-22T02:01:34.821Z,23.50
2023-02-22T02:04:05.944Z,32.95
2023-02-22T02:06:34.602Z,28.23
2023-02-22T02:09:13.326Z,26.45
2023-02-22T02:11:41.713Z,25.58
2023-02-22T02:14:10.214Z,20.63
2023-02-22T02:16:46.918Z,25.77
2023-02-22T02:19:53.576Z,28.45
2023-02-22T02:23:10.937Z,25.42
2023-02-22T02:26:04.240Z,36.50
2023-02-22T02:29:14.675Z,20.60
2023-02-22T02:31:56.930Z,39.20
2023-02-22T02:34:41.353Z,21.00
2023-02-22T02:37:26.960Z,22.60
2023-02-22T02:40:17.672Z,18.83
2023-02-22T02:43:13.973Z,22.33
2023-02-22T02:46:12.939Z,22.08
2023-02-22T02:48:47.922Z,33.45
2023-02-22T02:51:16.422Z,29.77
2023-02-22T02:53:47.988Z,25.80
2023-02-22T02:56:14.754Z,17.88
2023-02-22T02:58:50.176Z,27.15
2023-02-22T03:02:01.150Z,15.27
2023-02-22T03:04:48.908Z,20.48
2023-02-22T03:07:29.495Z,22.23
2023-02-22T03:10:27.778Z,19.73
2023-02-22T03:13:19.636Z,19.17
2023-02-22T03:16:07.188Z,23.65
2023-02-22T03:19:04.629Z,25.20
2023-02-22T03:21:51.483Z,22.27
2023-02-22T03:24:27.445Z,30.35
2023-02-22T03:27:02.873Z,19.55
2023-02-22T03:29:35.484Z,19.48
2023-02-22T03:32:08.484Z,20.52
2023-02-22T03:34:59.187Z,21.13
2023-02-22T03:37:34.046Z,21.65
2023-02-22T03:40:13.916Z,18.27
2023-02-22T03:42:59.154Z,15.68
2023-02-22T03:45:28.832Z,17.30
2023-02-22T03:48:16.425Z,22.52
2023-02-22T03:50:43.806Z,15.02
2023-02-22T03:53:10.855Z,23.88
2023-02-22T03:55:40.804Z,18.42
2023-02-22T03:58:11.923Z,18.83
2023-02-22T04:00:39.382Z,19.40
2023-02-22T04:03:06.535Z,18.15
2023-02-22T04:05:33.436Z,19.30
2023-02-22T04:08:00.180Z,20.17
2023-02-22T04:10:27.661Z,19.45
2023-02-22T04:12:54.478Z,19.65
2023-02-22T04:15:23.940Z,21.65
2023-02-22T04:17:55.379Z,23.60
2023-02-22T04:20:25.440Z,18.13
2023-02-22T04:22:56.445Z,10.57
2023-02-22T04:25:24.236Z,26.73
2023-02-22T04:27:52.394Z,28.45
2023-02-22T04:30:23.877Z,17.52
2023-02-22T04:32:50.779Z,12.23
2023-02-22T04:35:21.061Z,18.80
2023-02-22T04:37:47.888Z,17.98
2023-02-22T04:40:16.874Z,21.50
2023-02-22T04:42:43.849Z,19.52
2023-02-22T04:45:11.400Z,19.08
2023-02-22T04:47:39.240Z,17.20
2023-02-22T04:50:09.270Z,17.92
2023-02-22T04:52:36.026Z,17.98
2023-02-22T04:55:04.716Z,18.55
2023-02-22T04:57:32.529Z,18.20
2023-02-22T04:59:59.574Z,25.52
2023-02-22T08:30:05.798Z,18.27
2023-02-22T08:32:32.754Z,10.10
2023-02-22T08:34:59.533Z,10.32
2023-02-22T08:37:26.334Z,9.90
2023-02-22T08:39:53.781Z,12.18
2023-02-22T08:42:20.567Z,11.38
2023-02-22T08:44:47.215Z,9.98
2023-02-22T08:47:14.010Z,11.32
2023-02-22T08:49:42.033Z,8.13
2023-02-22T08:52:09.132Z,13.00
2023-02-22T08:54:35.933Z,12.77
2023-02-22T08:57:02.770Z,10.07
2023-02-22T08:59:29.794Z,11.05
2023-02-22T09:01:56.577Z,10.05
2023-02-22T09:04:23.284Z,9.82
2023-02-22T09:06:51.799Z,12.70
2023-02-22T09:09:21.295Z,7.82
2023-02-22T09:11:52.941Z,17.95
2023-02-22T09:14:20.094Z,10.00
2023-02-22T09:16:46.869Z,7.95
2023-02-22T09:19:13.745Z,10.70
2023-02-22T09:21:40.481Z,9.90
2023-02-22T09:24:10.574Z,8.73
2023-02-22T09:26:45.980Z,9.80
2023-02-22T09:29:13.064Z,10.15
2023-02-22T09:31:41.198Z,9.40
2023-02-22T09:34:13.686Z,12.05
2023-02-22T09:36:44.092Z,11.65
2023-02-22T09:39:11.310Z,10.80
2023-02-22T09:42:05.555Z,9.00
2023-02-22T09:47:40.010Z,14.50
2023-02-22T09:50:15.791Z,10.23
2023-02-22T09:52:54.624Z,21.38
2023-02-22T09:55:53.913Z,15.88
2023-02-22T09:58:33.358Z,13.25
2023-02-22T10:01:26.951Z,13.98
2023-02-22T10:04:22.002Z,11.05
2023-02-22T10:07:14.850Z,13.23
2023-02-22T10:09:43.472Z,12.45
2023-02-22T10:12:14.969Z,11.82
2023-02-22T10:15:04.661Z,9.55
2023-02-22T10:17:44.248Z,13.57
2023-02-22T10:20:14.549Z,18.50
2023-02-22T10:23:38.152Z,11.35
2023-02-22T10:26:36.747Z,14.93
2023-02-22T10:29:25.196Z,9.15
2023-02-22T10:31:57.354Z,11.73
2023-02-22T10:34:26.821Z,15.77
2023-02-22T10:37:13.852Z,9.02
2023-02-22T10:39:43.105Z,10.65
2023-02-22T10:42:10.899Z,11.32
2023-02-22T10:44:39.218Z,15.13
2023-02-22T10:47:10.135Z,11.63
2023-02-22T10:49:42.279Z,11.23
2023-02-22T10:52:23.649Z,10.77
2023-02-22T10:54:58.827Z,14.45
2023-02-22T10:57:33.771Z,14.77
2023-02-22T11:00:19.507Z,12.35
2023-02-22T11:02:58.887Z,16.27
2023-02-22T11:05:37.908Z,18.80
2023-02-22T11:08:28.828Z,11.43
2023-02-22T11:10:59.671Z,12.48
2023-02-22T11:13:38.288Z,12.32
2023-02-22T11:16:41.826Z,12.10
2023-02-22T11:19:25.560Z,16.27
2023-02-22T11:21:56.922Z,10.30
2023-02-22T11:24:30.417Z,10.48
2023-02-22T11:27:07.859Z,23.10
2023-02-22T11:29:37.094Z,18.30
2023-02-22T11:32:20.975Z,16.83
2023-02-22T11:37:25.817Z,12.40
2023-02-22T11:40:19.894Z,17.58
2023-02-22T11:42:47.989Z,23.70
2023-02-22T11:45:21.109Z,14.35
2023-02-22T11:47:49.623Z,16.73
2023-02-22T11:50:44.101Z,18.05
2023-02-22T11:53:21.926Z,11.82
2023-02-22T11:56:10.479Z,21.08
2023-02-22T11:58:59.848Z,18.15
2023-02-22T12:01:29.632Z,15.15
2023-02-22T12:04:26.327Z,22.70
2023-02-22T12:06:59.096Z,20.40
2023-02-22T12:09:43.289Z,21.10
2023-02-22T12:12:32.646Z,19.67
2023-02-22T12:15:20.951Z,18.27
2023-02-22T12:18:00.546Z,25.10
2023-02-22T12:20:47.995Z,20.05
2023-02-22T12:23:23.751Z,14.38
2023-02-22T12:25:58.595Z,16.20
2023-02-22T12:28:31.624Z,31.48
2023-02-22T12:31:07.488Z,16.33
2023-02-22T12:33:48.792Z,22.52
2023-02-22T12:36:18.906Z,16.77
2023-02-22T12:38:54.409Z,19.80
2023-02-22T12:41:43.815Z,20.40
2023-02-22T12:44:26.119Z,24.35
2023-02-22T12:46:56.634Z,18.70
2023-02-22T12:49:44.385Z,24.33
2023-02-22T12:52:41.647Z,32.42
2023-02-22T12:55:21.152Z,21.02
2023-02-22T12:58:18.293Z,33.10
2023-02-22T13:00:50.494Z,28.33
2023-02-22T13:03:35.459Z,20.10
2023-02-22T13:06:25.782Z,20.15
2023-02-22T13:09:30.218Z,18.50
2023-02-22T13:14:30.033Z,18.63
2023-02-22T13:17:24.495Z,27.27
2023-02-22T13:20:10.011Z,19.80
2023-02-22T13:22:45.043Z,25.98
2023-02-22T13:25:26.042Z,28.58
2023-02-22T13:28:07.358Z,20.98
2023-02-22T13:30:45.780Z,20.02
2023-02-22T13:33:39.624Z,30.10
2023-02-22T13:36:51.344Z,24.15
2023-02-22T13:39:39.631Z,27.13
2023-02-22T13:42:31.904Z,28.10
2023-02-22T13:45:20.176Z,31.88
2023-02-22T13:48:00.238Z,32.83
2023-02-22T13:50:54.624Z,26.92
2023-02-22T13:53:28.899Z,25.08
2023-02-22T13:55:58.468Z,26.52
2023-02-22T13:58:25.706Z,28.30
2023-02-22T14:00:58.187Z,30.45
2023-02-22T14:03:36.031Z,32.33
2023-02-22T14:06:07.565Z,29.50
2023-02-22T14:08:34.350Z,28.95
2023-02-22T14:11:06.528Z,34.10
2023-02-22T14:13:55.076Z,28.23
2023-02-22T14:16:27.793Z,27.50
2023-02-22T14:19:06.492Z,27.13
2023-02-22T14:21:35.197Z,31.58
2023-02-22T14:24:12.665Z,37.97
2023-02-22T14:26:40.749Z,32.53
2023-02-22T14:29:10.168Z,35.38
2023-02-22T14:31:52.071Z,32.28
2023-02-22T14:34:39.893Z,33.72
2023-02-22T14:37:12.656Z,32.95
2023-02-22T14:39:43.382Z,35.10
2023-02-22T14:42:28.159Z,34.15
2023-02-22T14:45:14.616Z,34.10
2023-02-22T14:48:20.525Z,30.23
2023-02-22T14:50:54.302Z,34.40
2023-02-22T14:53:41.273Z,37.67
2023-02-22T14:56:15.743Z,35.00
2023-02-22T14:58:52.094Z,30.92
2023-02-22T15:01:20.032Z,34.67
2023-02-22T15:03:49.714Z,30.45
2023-02-22T15:06:23.529Z,35.50
2023-02-22T15:09:11.625Z,40.20
2023-02-22T15:11:38.639Z,39.20
2023-02-22T15:14:25.662Z,35.70
2023-02-22T15:16:58.643Z,34.00
2023-02-22T15:19:28.584Z,35.42
2023-02-22T15:21:58.304Z,36.05
2023-02-22T15:24:28.810Z,40.70
2023-02-22T15:27:04.967Z,36.42
2023-02-22T15:29:40.815Z,42.95
2023-02-22T15:32:30.602Z,40.33
2023-02-22T15:35:17.658Z,32.13
2023-02-22T15:37:45.616Z,28.85
2023-02-22T15:40:16.190Z,29.73
2023-02-22T15:42:48.706Z,34.40
2023-02-22T15:45:19.939Z,36.30
2023-02-22T15:47:49.434Z,36.78
2023-02-22T15:50:26.558Z,39.90
2023-02-22T15:52:59.930Z,37.05
2023-02-22T15:55:39.837Z,32.03
2023-02-22T15:58:18.461Z,38.40
2023-02-22T16:00:50.801Z,37.88
2023-02-22T16:03:28.487Z,48.30
2023-02-22T16:05:56.917Z,33.83
2023-02-22T16:08:43.017Z,38.80
2023-02-22T16:11:38.301Z,34.78
2023-02-22T16:14:22.493Z,44.97
2023-02-22T16:16:49.600Z,39.28
2023-02-22T16:19:31.312Z,45.17
2023-02-22T16:22:03.026Z,37.50
2023-02-22T16:24:35.394Z,35.55
2023-02-22T16:27:23.021Z,40.08
2023-02-22T16:30:23.378Z,33.47
2023-02-22T16:32:51.777Z,37.03
2023-02-22T16:35:18.764Z,34.35
2023-02-22T16:37:51.243Z,36.63
2023-02-22T16:40:26.046Z,41.08
2023-02-22T16:42:52.845Z,36.35
2023-02-22T16:45:20.938Z,39.33
2023-02-22T16:47:51.515Z,29.25
2023-02-22T16:50:18.333Z,36.78
2023-02-22T16:52:45.197Z,38.58
2023-02-22T16:55:14.190Z,36.70
2023-02-22T16:57:43.075Z,44.88
2023-02-22T17:00:30.921Z,31.35
2023-02-22T17:03:05.926Z,36.42
2023-02-22T17:05:36.300Z,33.00
2023-02-22T17:08:06.335Z,33.83
2023-02-22T17:10:34.072Z,35.38
2023-02-22T17:13:12.836Z,35.60
2023-02-22T17:15:47.368Z,30.83
2023-02-22T17:18:19.311Z,33.90
2023-02-22T17:20:46.112Z,31.98
2023-02-22T17:23:13.072Z,32.60
2023-02-22T17:25:39.826Z,42.53
2023-02-22T17:28:07.298Z,37.33
2023-02-22T17:30:35.867Z,38.05
2023-02-22T17:33:05.281Z,38.97
2023-02-22T17:35:39.597Z,36.30
2023-02-22T17:38:06.675Z,41.70
2023-02-22T17:40:35.498Z,50.97
2023-02-22T17:43:02.624Z,36.33
2023-02-22T17:45:29.916Z,41.88
2023-02-22T17:47:59.358Z,39.95
2023-02-22T17:50:26.575Z,33.45
2023-02-22T17:52:53.423Z,45.15
2023-02-22T17:55:21.597Z,42.22
2023-02-22T17:57:52.672Z,39.38
2023-02-22T18:00:32.924Z,42.30
2023-02-22T18:03:07.094Z,58.92
2023-02-22T18:05:47.151Z,37.67
2023-02-22T18:08:15.201Z,41.72
2023-02-22T18:10:43.623Z,37.33
2023-02-22T18:13:14.244Z,42.25
2023-02-22T18:15:41.063Z,38.78
2023-02-22T18:18:07.897Z,36.95
2023-02-22T18:20:43.277Z,49.25
2023-02-22T18:23:16.166Z,41.40
2023-02-22T18:26:07.642Z,49.53
2023-02-22T18:28:36.723Z,39.93
2023-02-22T18:31:15.637Z,39.97
2023-02-22T18:33:48.017Z,42.03
2023-02-22T18:36:16.149Z,42.45
2023-02-22T18:38:44.476Z,39.40
2023-02-22T18:41:14.026Z,43.30
2023-02-22T18:43:41.051Z,53.65
2023-02-22T18:46:18.337Z,41.22
2023-02-22T18:48:46.786Z,49.97
2023-02-22T18:51:17.202Z,41.58
2023-02-22T18:53:47.564Z,41.35
2023-02-22T18:56:21.349Z,51.30
2023-02-22T19:01:16.981Z,44.05
2023-02-22T19:03:47.051Z,48.20
2023-02-22T19:06:14.377Z,45.67
2023-02-22T19:08:42.537Z,43.67
2023-02-22T19:11:21.676Z,49.75
2023-02-22T19:13:51.313Z,47.58
2023-02-22T19:16:21.622Z,50.13
2023-02-22T19:18:52.261Z,48.25
2023-02-22T19:21:20.011Z,43.38
2023-02-22T19:23:47.941Z,46.83
2023-02-22T19:26:23.917Z,39.67
2023-02-22T19:28:52.616Z,52.72
2023-02-22T19:31:33.229Z,47.28
2023-02-22T19:34:09.860Z,39.10
2023-02-22T19:36:48.001Z,41.17
2023-02-22T19:39:16.756Z,37.67
2023-02-22T19:41:43.848Z,41.70
2023-02-22T19:44:10.920Z,46.83
2023-02-22T19:46:43.236Z,44.22
2023-02-22T19:49:10.063Z,40.10
2023-02-22T19:51:37.523Z,44.00
2023-02-22T19:54:07.165Z,39.42
2023-02-22T19:56:35.377Z,40.90
2023-02-22T19:59:13.629Z,46.72
2023-02-22T20:01:44.046Z,41.58
2023-02-22T20:04:17.654Z,42.53
2023-02-22T20:09:16.629Z,47.97
2023-02-22T20:11:45.028Z,45.65
2023-02-22T20:14:23.121Z,37.58
2023-02-22T20:16:54.876Z,46.28
2023-02-22T20:19:24.638Z,44.90
2023-02-22T20:21:55.690Z,45.17
2023-02-22T20:24:23.693Z,45.08
2023-02-22T20:26:51.060Z,48.63
2023-02-22T20:29:18.030Z,40.15
2023-02-22T20:31:49.155Z,43.42
2023-02-22T20:34:15.937Z,44.92
2023-02-22T20:36:42.737Z,38.30
2023-02-22T20:39:15.788Z,44.88
2023-02-22T20:41:44.377Z,43.95
2023-02-22T20:44:14.140Z,42.22
2023-02-22T20:46:41.518Z,43.65
2023-02-22T20:49:11.148Z,47.92
2023-02-22T20:51:40.258Z,48.08
2023-02-22T20:54:11.443Z,42.38
2023-02-22T20:56:40.671Z,49.92
2023-02-22T20:59:08.633Z,47.53
2023-02-22T21:01:35.976Z,44.38
2023-02-22T21:04:06.164Z,52.85
2023-02-22T21:06:36.839Z,49.75
2023-02-22T21:09:08.784Z,45.30
2023-02-22T21:11:36.140Z,39.97
2023-02-22T21:14:03.614Z,46.85
2023-02-22T21:16:33.464Z,41.55
2023-02-22T21:19:02.699Z,48.17
2023-02-22T21:21:30.728Z,54.53
2023-02-22T21:24:02.255Z,41.15
2023-02-22T21:26:32.888Z,40.80
2023-02-22T21:29:04.868Z,40.78
2023-02-22T21:31:33.123Z,51.47
2023-02-22T21:34:01.282Z,41.10
2023-02-22T21:36:28.920Z,61.17
2023-02-22T21:39:00.762Z,51.75
2023-02-22T21:41:30.360Z,45.75
2023-02-22T21:43:58.906Z,41.97
2023-02-22T21:46:29.544Z,46.83
2023-02-22T21:48:59.029Z,51.75
2023-02-22T21:51:32.033Z,37.45
2023-02-22T21:54:01.520Z,64.82
2023-02-22T21:56:31.332Z,50.72
2023-02-22T21:59:03.403Z,54.75
2023-02-22T22:01:33.211Z,42.28
2023-02-22T22:04:01.708Z,43.13
2023-02-22T22:06:30.166Z,49.88
2023-02-22T22:08:59.651Z,44.03
2023-02-22T22:11:26.558Z,49.95
2023-02-22T22:13:57.363Z,46.97
2023-02-22T22:16:27.128Z,51.60
2023-02-22T22:18:55.323Z,46.58
2023-02-22T22:21:23.857Z,53.08
2023-02-22T22:23:55.692Z,47.53
2023-02-22T22:26:24.530Z,50.42
2023-02-22T22:28:55.793Z,49.45
2023-02-22T22:31:24.769Z,44.33
2023-02-22T22:33:52.623Z,55.72
2023-02-22T22:36:21.665Z,52.90
2023-02-22T22:38:49.038Z,48.75
2023-02-22T22:41:18.821Z,53.85
2023-02-22T22:43:46.239Z,44.83
2023-02-22T22:46:17.924Z,43.08
2023-02-22T22:48:47.234Z,41.42
2023-02-22T22:51:21.901Z,47.03
2023-02-22T22:53:50.524Z,49.38
2023-02-22T22:56:20.466Z,49.30
2023-02-22T22:58:52.886Z,49.22
2023-02-22T23:01:26.726Z,50.83
2023-02-22T23:04:01.833Z,56.22
2023-02-22T23:06:32.674Z,45.35
2023-02-22T23:09:13.885Z,54.95
2023-02-22T23:11:46.155Z,48.47
2023-02-22T23:14:21.692Z,46.50
2023-02-22T23:16:50.684Z,42.17
2023-02-22T23:19:19.089Z,52.20
2023-02-22T23:21:49.752Z,53.08
2023-02-22T23:24:19.773Z,45.83
2023-02-22T23:26:49.554Z,45.95
2023-02-22T23:29:21.930Z,49.67
2023-02-22T23:31:50.279Z,50.97
2023-02-22T23:34:21.436Z,48.25
2023-02-22T23:36:49.766Z,45.80
2023-02-22T23:39:20.507Z,43.22
2023-02-22T23:41:55.001Z,52.00
2023-02-22T23:44:22.372Z,49.22
2023-02-22T23:46:55.641Z,48.60
2023-02-22T23:51:51.164Z,42.22
2023-02-22T23:54:19.998Z,52.30
2023-02-22T23:56:56.138Z,43.15
2023-02-22T23:59:27.305Z,50.45
